Time;durP1;ratioP1;P1;durP2;ratioP2;P2;SDS_P1;SDS_P2;PMS_P1;PMS_P2;Temp;Humidity;BMP_temperature;BMP_pressure;BME280_temperature;BME280_humidity;BME280_pressure;Samples;Min_cycle;Max_cycle;Signal;HPM_P1;HPM_P2
2022/04/07 00:06:09;;;;;;;13.25;7.05;;;14.00;71.50;;;;;;10979520;32;20087;-73
2022/04/07 00:12:11;;;;;;;21.23;16.93;;;13.90;71.50;;;;;;10981912;32;20030;-72
2022/04/07 00:18:13;;;;;;;16.67;12.25;;;13.90;71.50;;;;;;10978579;32;20026;-72
2022/04/07 00:24:15;;;;;;;17.90;11.48;;;13.90;71.50;;;;;;10977890;32;20030;-72
2022/04/07 00:30:20;;;;;;;12.30;7.30;;;13.70;71.60;;;;;;10981353;32;20333;-72
2022/04/07 00:36:22;;;;;;;11.82;9.00;;;13.20;72.30;;;;;;10963489;32;20048;-72
2022/04/07 00:42:24;;;;;;;11.88;8.48;;;13.30;73.00;;;;;;10980579;32;20065;-72
2022/04/07 00:48:27;;;;;;;14.50;12.27;;;13.30;73.40;;;;;;10978096;32;20022;-72
2022/04/07 00:54:30;;;;;;;9.50;7.22;;;13.50;73.30;;;;;;10980595;32;20031;-72
2022/04/07 01:00:34;;;;;;;14.02;11.15;;;13.50;72.80;;;;;;10976264;32;20061;-72
2022/04/07 01:06:43;;;;;;;15.02;11.32;;;13.40;72.70;;;;;;10977222;32;20026;-72
2022/04/07 01:12:45;;;;;;;;;;;13.40;72.50;;;;;;10991319;27;20449;-72
2022/04/07 01:18:48;;;;;;;10.98;6.53;;;13.40;72.10;;;;;;11017940;32;19925;-72
2022/04/07 01:24:50;;;;;;;9.40;6.28;;;13.30;72.10;;;;;;11017998;32;20027;-72
2022/04/07 01:30:52;;;;;;;12.25;7.87;;;13.20;72.30;;;;;;11017711;32;20027;-72
2022/04/07 01:36:54;;;;;;;14.50;11.50;;;13.20;72.70;;;;;;11017509;32;20080;-72
2022/04/07 01:42:58;;;;;;;14.45;9.52;;;13.20;72.80;;;;;;11017320;32;20056;-72
2022/04/07 01:49:10;;;;;;;15.73;10.68;;;13.20;72.60;;;;;;11017346;32;20026;-72
2022/04/07 01:55:35;;;;;;;17.75;14.75;;;13.20;72.60;;;;;;11017329;32;20018;-72
2022/04/07 02:01:37;;;;;;;16.50;11.88;;;13.20;72.50;;;;;;11017059;32;20022;-72
2022/04/07 02:07:42;;;;;;;14.95;13.25;;;13.30;72.70;;;;;;11003589;32;20014;-72
2022/04/07 02:13:45;;;;;;;15.13;13.32;;;13.30;72.70;;;;;;11003402;32;20092;-72
2022/04/07 02:19:52;;;;;;;13.40;11.40;;;13.40;72.50;;;;;;11016926;32;20041;-72
2022/04/07 02:25:54;;;;;;;12.25;7.70;;;13.40;72.70;;;;;;11016713;32;20072;-72
2022/04/07 02:31:56;;;;;;;11.48;8.52;;;13.40;72.60;;;;;;11016716;32;20053;-72
2022/04/07 02:37:59;;;;;;;18.30;14.90;;;13.30;72.70;;;;;;11012244;32;20030;-72
2022/04/07 02:44:02;;;;;;;12.40;9.18;;;13.30;72.70;;;;;;11014930;32;20026;-72
2022/04/07 02:50:05;;;;;;;14.13;10.05;;;13.20;72.60;;;;;;11015799;32;20052;-72
2022/04/07 02:56:07;;;;;;;12.10;8.38;;;13.10;72.80;;;;;;11019739;32;20029;-72
2022/04/07 03:02:09;;;;;;;13.50;9.95;;;13.00;72.90;;;;;;11005396;32;20338;-72
2022/04/07 03:08:12;;;;;;;11.73;7.78;;;13.00;72.90;;;;;;11018407;32;20338;-72
2022/04/07 03:14:15;;;;;;;15.93;12.48;;;13.00;72.90;;;;;;11022313;32;20026;-72
2022/04/07 03:20:17;;;;;;;10.00;7.35;;;12.90;73.10;;;;;;11022240;32;20041;-72
2022/04/07 03:26:22;;;;;;;10.07;7.05;;;12.90;73.20;;;;;;11021972;32;20030;-72
2022/04/07 03:32:25;;;;;;;10.88;7.85;;;12.80;73.30;;;;;;11021742;32;20072;-72
2022/04/07 03:38:27;;;;;;;12.45;7.47;;;12.70;73.50;;;;;;11021541;32;20022;-72
2022/04/07 03:44:29;;;;;;;8.35;5.55;;;12.60;73.60;;;;;;11021417;32;20390;-72
2022/04/07 03:50:32;;;;;;;10.43;7.00;;;12.50;73.90;;;;;;11016745;32;20049;-72
2022/04/07 03:56:34;;;;;;;14.87;11.82;;;12.40;74.10;;;;;;11016784;32;20033;-72
2022/04/07 04:02:36;;;;;;;19.33;14.05;;;12.40;74.20;;;;;;11005097;32;20030;-72
2022/04/07 04:09:17;;;;;;;10.45;8.05;;;12.60;74.40;;;;;;11020443;32;20110;-72
2022/04/07 04:15:19;;;;;;;13.57;8.80;;;12.70;73.90;;;;;;11020192;32;20015;-72
2022/04/07 04:21:21;;;;;;;14.50;11.35;;;12.50;73.90;;;;;;11019901;32;20452;-72
2022/04/07 04:27:23;;;;;;;21.75;18.10;;;12.50;74.00;;;;;;11019504;32;20387;-70
2022/04/07 04:33:25;;;;;;;11.70;9.32;;;12.70;73.90;;;;;;11019397;32;20054;-70
2022/04/07 04:39:38;;;;;;;13.62;9.95;;;12.70;73.70;;;;;;11019241;32;20026;-70
2022/04/07 04:45:40;;;;;;;13.35;9.48;;;12.70;73.90;;;;;;11018879;32;20048;-70
2022/04/07 04:51:42;;;;;;;10.68;7.35;;;12.70;73.90;;;;;;11005172;32;20018;-71
2022/04/07 04:58:02;;;;;;;12.27;8.07;;;12.60;73.70;;;;;;11018661;32;20036;-71
2022/04/07 05:04:04;;;;;;;10.75;7.60;;;12.50;74.20;;;;;;11018519;32;20056;-70
2022/04/07 05:10:07;;;;;;;9.15;6.87;;;12.40;74.20;;;;;;11014053;32;20326;-70
2022/04/07 05:16:15;;;;;;;10.73;8.02;;;12.30;74.50;;;;;;11017407;32;20019;-70
2022/04/07 05:22:18;;;;;;;10.13;7.87;;;12.20;74.90;;;;;;11015612;32;20026;-70
2022/04/07 05:28:21;;;;;;;12.45;8.50;;;12.20;74.80;;;;;;11015515;32;20026;-71
2022/04/07 05:34:25;;;;;;;12.50;8.95;;;12.40;74.60;;;;;;11004028;32;20080;-71
2022/04/07 05:40:27;;;;;;;18.83;14.05;;;12.50;74.50;;;;;;11010879;32;20057;-70
2022/04/07 05:46:29;;;;;;;13.43;9.32;;;12.50;74.40;;;;;;10979219;32;20031;-70
2022/04/07 05:52:32;;;;;;;13.25;9.85;;;12.20;74.60;;;;;;10965624;32;20049;-70
2022/04/07 05:58:33;;;;;;;13.15;10.98;;;12.30;74.80;;;;;;10978499;32;20022;-70
2022/04/07 06:04:39;;;;;;;12.35;9.40;;;12.50;74.70;;;;;;10978567;32;20434;-70
2022/04/07 06:10:41;;;;;;;17.58;14.68;;;12.70;74.50;;;;;;10979307;32;20022;-71
2022/04/07 06:16:43;;;;;;;17.37;14.23;;;12.90;74.20;;;;;;10965558;32;20022;-71
2022/04/07 06:22:45;;;;;;;19.48;14.85;;;12.80;74.10;;;;;;10974116;32;20026;-71
2022/04/07 06:28:47;;;;;;;19.10;14.25;;;13.10;74.40;;;;;;10980786;32;20030;-71
2022/04/07 06:34:49;;;;;;;16.65;11.98;;;13.40;73.90;;;;;;10984826;32;20030;-71
2022/04/07 06:41:10;;;;;;;23.98;19.45;;;13.80;73.60;;;;;;11004670;32;20033;-71
2022/04/07 06:47:24;;;;;;;21.50;14.93;;;13.70;73.20;;;;;;10989773;32;20057;-70
2022/04/07 06:53:26;;;;;;;18.20;14.23;;;14.00;73.10;;;;;;10982669;32;20030;-71
2022/04/07 06:59:51;;;;;;;18.05;13.88;;;14.20;72.90;;;;;;10981257;32;20064;-71
2022/04/07 07:05:58;;;;;;;21.60;18.23;;;14.50;72.50;;;;;;10980719;32;20214;-71
2022/04/07 07:12:00;;;;;;;21.65;17.23;;;14.40;73.10;;;;;;10980419;32;20023;-71
2022/04/07 07:18:02;;;;;;;17.73;13.85;;;14.50;73.00;;;;;;10980564;32;20346;-71
2022/04/07 07:24:05;;;;;;;18.15;15.07;;;14.70;72.80;;;;;;10983502;32;20033;-71
2022/04/07 07:30:09;;;;;;;22.65;18.73;;;14.80;72.60;;;;;;10983743;32;20018;-70
2022/04/07 07:36:11;;;;;;;23.23;14.80;;;14.90;72.30;;;;;;10988665;32;20064;-71
2022/04/07 07:42:13;;;;;;;18.33;13.27;;;14.80;72.30;;;;;;11019405;32;20034;-71
2022/04/07 07:48:34;;;;;;;23.62;10.75;;;14.80;72.30;;;;;;11021122;32;20053;-71
2022/04/07 07:54:37;;;;;;;20.23;16.40;;;14.90;72.40;;;;;;11020975;32;20026;-71
2022/04/07 08:00:39;;;;;;;11.75;8.32;;;14.90;72.00;;;;;;11020724;32;20031;-70
2022/04/07 08:06:42;;;;;;;14.82;12.40;;;15.00;72.10;;;;;;11020504;32;20022;-70
2022/04/07 08:12:44;;;;;;;13.55;9.73;;;15.10;72.00;;;;;;11015850;32;20048;-70
2022/04/07 08:18:46;;;;;;;13.65;8.55;;;14.90;71.70;;;;;;11005654;32;20408;-70
2022/04/07 08:24:48;;;;;;;9.70;6.32;;;14.80;71.80;;;;;;11015495;32;20299;-71
2022/04/07 08:30:50;;;;;;;9.77;6.70;;;14.80;72.10;;;;;;11005619;32;20058;-70
2022/04/07 08:36:53;;;;;;;9.50;7.00;;;15.10;71.80;;;;;;10981812;32;20030;-71
2022/04/07 08:42:55;;;;;;;13.02;8.95;;;15.20;71.50;;;;;;10967544;32;20346;-70
2022/04/07 08:49:04;;;;;;;10.77;8.10;;;15.10;71.70;;;;;;10980836;32;20019;-70
2022/04/07 08:55:06;;;;;;;15.23;12.33;;;15.00;71.40;;;;;;10980760;32;20058;-71
2022/04/07 09:01:08;;;;;;;30.25;23.55;;;15.20;71.70;;;;;;10980387;32;20130;-72
2022/04/07 09:07:15;;;;;;;10.32;6.80;;;15.40;71.10;;;;;;10963177;32;20045;-71
2022/04/07 09:13:18;;;;;;;12.68;9.38;;;15.40;70.80;;;;;;10592370;27;12495642;-70
2022/04/07 09:19:23;;;;;;;21.27;17.87;;;15.40;70.10;;;;;;10939252;32;20042;-72
2022/04/07 09:25:26;;;;;;;15.27;9.93;;;15.40;70.10;;;;;;10933998;32;20027;-71
2022/04/07 09:31:28;;;;;;;23.20;15.38;;;15.50;69.70;;;;;;10934612;32;20050;-69
2022/04/07 09:37:30;;;;;;;18.37;11.43;;;15.40;68.80;;;;;;10938379;32;20030;-70
2022/04/07 09:43:49;;;;;;;25.80;18.42;;;15.50;69.10;;;;;;10979146;32;20023;-69
2022/04/07 09:49:51;;;;;;;20.70;17.75;;;15.70;68.50;;;;;;10974934;32;20353;-69
2022/04/07 09:55:54;;;;;;;29.52;25.37;;;15.90;68.40;;;;;;10977543;32;20421;-69
2022/04/07 10:01:58;;;;;;;19.67;13.43;;;16.10;68.00;;;;;;10968473;32;20076;-70
2022/04/07 10:08:03;;;;;;;22.00;17.50;;;16.20;68.10;;;;;;10983087;32;20365;-70
2022/04/07 10:14:08;;;;;;;14.95;11.32;;;16.60;68.10;;;;;;10986155;32;20084;-70
2022/04/07 10:20:18;;;;;;;15.80;12.52;;;16.80;66.90;;;;;;10972816;32;20334;-70
2022/04/07 10:26:24;;;;;;;19.80;15.13;;;17.00;67.30;;;;;;10972687;32;20072;-70
2022/04/07 10:32:35;;;;;;;20.75;11.50;;;17.10;66.60;;;;;;10970540;32;20057;-70
2022/04/07 10:38:48;;;;;;;14.48;12.98;;;17.10;67.10;;;;;;10985668;32;20322;-70
2022/04/07 10:45:05;;;;;;;10.77;8.07;;;17.50;66.90;;;;;;10985370;32;20049;-70
2022/04/07 10:51:09;;;;;;;16.42;10.60;;;17.70;65.50;;;;;;10985214;32;20027;-70
2022/04/07 10:57:18;;;;;;;29.55;19.73;;;17.80;65.50;;;;;;10984702;32;20022;-69
2022/04/07 11:03:20;;;;;;;;;;;18.00;64.10;;;;;;10984260;32;20065;-69
2022/04/07 11:09:22;;;;;;;14.10;10.15;;;18.20;64.10;;;;;;10981803;32;19934;-70
2022/04/07 11:15:57;;;;;;;23.73;17.15;;;18.40;63.30;;;;;;10961428;32;20049;-71
2022/04/07 11:22:09;;;;;;;15.70;13.40;;;18.80;62.60;;;;;;10824836;32;20035;-69
2022/04/07 11:28:15;;;;;;;24.85;20.17;;;19.30;61.90;;;;;;10824212;33;20058;-71
2022/04/07 11:34:39;;;;;;;23.55;18.17;;;19.30;60.80;;;;;;10825492;32;20028;-70
2022/04/07 11:40:58;;;;;;;22.50;13.77;;;19.30;60.70;;;;;;10825230;32;20336;-70
2022/04/07 11:47:01;;;;;;;22.57;13.80;;;19.40;59.20;;;;;;10829585;32;20435;-70
2022/04/07 11:53:03;;;;;;;15.80;11.57;;;19.50;58.70;;;;;;10828577;32;20132;-70
2022/04/07 11:59:07;;;;;;;21.80;16.12;;;19.70;58.20;;;;;;10970836;32;20030;-70
2022/04/07 12:05:11;;;;;;;30.50;25.77;;;19.90;57.90;;;;;;10978210;32;20330;-70
2022/04/07 12:11:13;;;;;;;17.00;13.40;;;20.10;58.30;;;;;;10970871;32;20027;-70
2022/04/07 12:17:23;;;;;;;24.73;20.67;;;20.00;58.70;;;;;;10944465;32;20065;-70
2022/04/07 12:23:27;;;;;;;20.92;15.90;;;20.00;57.20;;;;;;10944063;32;20061;-70
2022/04/07 12:29:31;;;;;;;19.08;13.57;;;19.80;56.30;;;;;;10943927;32;20035;-70
2022/04/07 12:35:44;;;;;;;20.85;15.75;;;19.80;56.60;;;;;;10943699;32;20023;-70
2022/04/07 12:41:51;;;;;;;34.97;28.27;;;19.90;57.10;;;;;;10939198;32;20374;-69
2022/04/07 12:48:05;;;;;;;23.77;18.48;;;19.60;55.10;;;;;;10943325;32;20018;-70
2022/04/07 12:54:29;;;;;;;18.90;14.68;;;19.50;56.40;;;;;;10943112;32;20323;-70
2022/04/07 13:00:32;;;;;;;13.10;9.90;;;19.40;57.10;;;;;;10942884;32;20054;-70
2022/04/07 13:06:36;;;;;;;15.45;12.37;;;19.30;56.70;;;;;;10942824;32;20057;-70
2022/04/07 13:12:38;;;;;;;27.87;19.15;;;19.30;57.50;;;;;;10942475;32;20304;-70
2022/04/07 13:18:40;;;;;;;41.50;34.03;;;19.50;57.80;;;;;;10942127;32;20357;-70
2022/04/07 13:24:42;;;;;;;40.40;36.20;;;19.70;58.00;;;;;;10928091;32;20034;-71
2022/04/07 13:30:44;;;;;;;32.08;28.15;;;19.80;59.40;;;;;;10941546;32;20049;-70
2022/04/07 13:36:47;;;;;;;24.77;19.87;;;19.70;59.70;;;;;;10954678;32;20085;-70
2022/04/07 13:42:49;;;;;;;19.30;15.95;;;19.80;59.70;;;;;;10972792;32;20038;-70
2022/04/07 13:48:51;;;;;;;24.27;20.77;;;19.90;59.50;;;;;;10965391;32;20038;-70
2022/04/07 13:54:53;;;;;;;27.70;24.98;;;19.70;60.00;;;;;;10954049;32;20039;-70
2022/04/07 14:00:58;;;;;;;31.05;27.25;;;19.50;60.80;;;;;;10958202;32;20057;-70
2022/04/07 14:07:00;;;;;;;28.45;25.52;;;19.50;60.80;;;;;;10978728;32;20050;-71
2022/04/07 14:13:24;;;;;;;32.00;28.50;;;19.70;60.80;;;;;;10975226;32;20057;-70
2022/04/07 14:19:26;;;;;;;34.30;26.55;;;19.80;60.60;;;;;;10971166;32;20053;-70
2022/04/07 14:25:29;;;;;;;31.05;27.87;;;19.80;60.50;;;;;;10967001;32;20053;-70
2022/04/07 14:31:32;;;;;;;37.67;29.87;;;19.90;60.60;;;;;;10968077;32;20031;-71
2022/04/07 14:37:33;;;;;;;25.55;22.15;;;20.00;60.50;;;;;;10974394;32;20057;-70
2022/04/07 14:43:40;;;;;;;30.55;24.10;;;20.40;60.30;;;;;;10965588;32;20339;-69
2022/04/07 14:49:43;;;;;;;16.60;13.75;;;20.60;59.70;;;;;;10955171;32;20053;-70
2022/04/07 14:55:46;;;;;;;29.65;26.08;;;20.90;59.30;;;;;;10984635;32;20026;-71
2022/04/07 15:01:48;;;;;;;30.30;26.20;;;20.90;59.50;;;;;;10970362;32;20035;-71
2022/04/07 15:07:50;;;;;;;27.58;21.05;;;20.50;60.40;;;;;;10956875;32;20316;-71
2022/04/07 15:13:55;;;;;;;31.40;25.12;;;20.00;61.10;;;;;;10983189;32;20026;-70
2022/04/07 15:19:57;;;;;;;28.50;22.23;;;19.70;62.10;;;;;;10952956;32;20089;-70
2022/04/07 15:26:00;;;;;;;36.05;31.60;;;19.40;62.80;;;;;;10942306;32;20027;-71
2022/04/07 15:32:03;;;;;;;42.00;33.28;;;19.20;63.30;;;;;;10978535;32;20046;-71
2022/04/07 15:38:05;;;;;;;40.90;31.33;;;18.90;64.00;;;;;;10983704;32;20018;-70
2022/04/07 15:44:07;;;;;;;25.33;21.73;;;18.80;64.70;;;;;;10980878;32;20093;-70
2022/04/07 15:50:16;;;;;;;38.00;31.12;;;18.60;65.20;;;;;;10943989;32;20050;-70
2022/04/07 15:57:12;;;;;;;31.77;27.80;;;18.30;65.90;;;;;;10941967;32;20018;-70
2022/04/07 16:03:15;;;;;;;37.45;33.53;;;18.10;66.40;;;;;;10828056;32;20035;-70
2022/04/07 16:09:16;;;;;;;30.00;24.63;;;17.90;66.50;;;;;;10828883;32;20490;-70
2022/04/07 16:15:18;;;;;;;26.35;17.12;;;17.80;67.50;;;;;;10826625;32;20028;-70
2022/04/07 16:21:21;;;;;;;22.25;15.80;;;17.80;67.80;;;;;;10827355;32;20425;-70
2022/04/07 16:27:23;;;;;;;22.35;15.25;;;17.80;67.60;;;;;;10831355;32;20069;-70
2022/04/07 16:33:27;;;;;;;20.40;16.12;;;18.00;67.60;;;;;;10860878;32;20042;-70
2022/04/07 16:39:30;;;;;;;16.62;13.57;;;18.50;66.60;;;;;;10940803;32;20276;-70
2022/04/07 16:45:32;;;;;;;21.35;14.57;;;19.30;65.70;;;;;;10943161;32;20027;-70
2022/04/07 16:51:34;;;;;;;31.75;18.75;;;19.90;64.60;;;;;;10929742;32;20022;-71
2022/04/07 16:58:03;;;;;;;26.23;15.80;;;20.20;63.80;;;;;;10942725;32;20343;-70
2022/04/07 17:04:05;;;;;;;13.50;10.38;;;20.00;63.50;;;;;;10942822;32;20022;-70
2022/04/07 17:10:08;;;;;;;18.55;13.73;;;19.70;64.40;;;;;;10937913;32;20058;-70
2022/04/07 17:16:10;;;;;;;13.95;9.88;;;19.20;65.50;;;;;;11004527;27;20385;-71
2022/04/07 17:22:13;;;;;;;14.60;11.48;;;18.90;66.50;;;;;;11015090;32;20056;-71
2022/04/07 17:28:15;;;;;;;15.70;12.48;;;18.70;66.50;;;;;;11013979;32;20025;-70
2022/04/07 17:34:17;;;;;;;12.40;9.48;;;18.50;67.00;;;;;;11017799;32;20080;-71
2022/04/07 17:40:21;;;;;;;17.00;12.10;;;18.20;67.80;;;;;;11014317;32;20061;-70
2022/04/07 17:46:23;;;;;;;15.90;11.52;;;17.80;68.50;;;;;;10974669;32;20041;-73
2022/04/07 17:52:28;;;;;;;14.32;11.55;;;17.80;69.10;;;;;;10966561;32;20386;-73
2022/04/07 17:58:31;;;;;;;15.30;13.35;;;17.50;69.30;;;;;;10976384;32;20064;-73
2022/04/07 18:04:33;;;;;;;22.58;16.92;;;17.40;70.10;;;;;;10976369;32;20054;-74
2022/04/07 18:10:35;;;;;;;14.57;11.23;;;17.10;70.50;;;;;;10980355;32;20318;-73
2022/04/07 18:16:37;;;;;;;12.73;9.50;;;16.80;71.70;;;;;;10977039;32;20018;-73
2022/04/07 18:22:47;;;;;;;16.65;12.30;;;17.00;72.00;;;;;;10980427;32;20034;-74
2022/04/07 18:28:50;;;;;;;19.35;12.95;;;17.20;72.00;;;;;;10983481;32;20027;-73
2022/04/07 18:35:05;;;;;;;15.25;12.07;;;17.10;72.10;;;;;;10982274;32;20045;-73
2022/04/07 18:41:07;;;;;;;14.35;12.32;;;17.10;72.40;;;;;;10991074;32;20057;-74
2022/04/07 18:47:09;;;;;;;19.05;12.68;;;17.20;72.30;;;;;;11017180;32;20050;-73
2022/04/07 18:53:15;;;;;;;12.48;10.98;;;17.00;72.80;;;;;;11015917;32;20410;-73
2022/04/07 18:59:18;;;;;;;17.30;13.38;;;17.00;72.70;;;;;;11004452;32;20054;-74
2022/04/07 19:05:22;;;;;;;13.07;11.35;;;16.80;73.40;;;;;;10996806;32;20026;-74
2022/04/07 19:11:26;;;;;;;21.35;18.58;;;16.70;74.40;;;;;;10988974;32;20057;-74
2022/04/07 19:17:28;;;;;;;16.05;11.32;;;16.80;74.10;;;;;;10999826;32;20030;-73
2022/04/07 19:23:31;;;;;;;15.05;10.80;;;16.50;74.70;;;;;;11013445;32;20060;-73
2022/04/07 19:30:17;;;;;;;16.62;13.80;;;16.60;74.90;;;;;;11022200;32;20049;-74
2022/04/07 19:36:38;;;;;;;12.48;8.98;;;16.50;74.60;;;;;;11018255;32;20053;-73
2022/04/07 19:42:49;;;;;;;10.90;8.90;;;16.30;75.20;;;;;;11009908;32;20054;-74
2022/04/07 19:48:53;;;;;;;13.48;9.82;;;16.30;75.50;;;;;;11007035;32;20394;-74
2022/04/07 19:54:56;;;;;;;11.77;8.65;;;16.50;75.40;;;;;;11021857;32;20048;-75
2022/04/07 20:00:58;;;;;;;15.73;8.88;;;16.50;75.40;;;;;;11021111;32;20453;-70
2022/04/07 20:07:00;;;;;;;9.88;7.05;;;16.20;75.50;;;;;;11020452;32;20049;-70
2022/04/07 20:13:03;;;;;;;8.07;6.03;;;16.20;75.90;;;;;;11020340;32;20026;-70
2022/04/07 20:19:05;;;;;;;11.77;7.80;;;16.40;75.60;;;;;;11017613;32;20318;-70
2022/04/07 20:25:08;;;;;;;9.45;8.18;;;16.40;75.60;;;;;;11019967;32;20049;-70
2022/04/07 20:31:11;;;;;;;11.20;8.95;;;16.40;75.50;;;;;;11019790;32;20041;-70
2022/04/07 20:37:13;;;;;;;12.82;9.73;;;16.50;75.40;;;;;;11001725;32;20033;-70
2022/04/07 20:43:16;;;;;;;10.40;7.65;;;16.40;75.40;;;;;;11015344;32;20052;-70
2022/04/07 20:49:18;;;;;;;11.85;8.68;;;16.30;75.20;;;;;;11019144;32;20065;-70
2022/04/07 20:55:20;;;;;;;12.48;9.73;;;16.30;75.50;;;;;;11005280;32;20053;-70
2022/04/07 21:01:23;;;;;;;10.25;8.18;;;16.20;75.80;;;;;;11018779;32;20056;-70
2022/04/07 21:07:25;;;;;;;11.38;8.88;;;16.00;75.90;;;;;;11018654;32;20029;-70
2022/04/07 21:13:28;;;;;;;12.15;7.15;;;16.10;76.00;;;;;;11016531;32;20062;-70
2022/04/07 21:19:30;;;;;;;13.65;11.27;;;16.10;75.90;;;;;;11018119;32;20057;-70
2022/04/07 21:25:33;;;;;;;13.10;8.93;;;16.10;75.90;;;;;;11000202;32;20052;-70
2022/04/07 21:31:35;;;;;;;13.15;8.25;;;16.10;75.70;;;;;;11004288;32;20040;-70
2022/04/07 21:37:39;;;;;;;16.08;9.75;;;16.10;75.60;;;;;;11017819;32;20196;-70
2022/04/07 21:43:42;;;;;;;11.43;8.27;;;16.00;75.90;;;;;;11017575;32;20053;-70
2022/04/07 21:49:44;;;;;;;10.27;7.25;;;16.10;75.20;;;;;;11017664;32;20014;-70
2022/04/07 21:55:46;;;;;;;10.25;8.15;;;15.80;75.10;;;;;;11015552;32;20018;-70
2022/04/07 22:01:49;;;;;;;8.02;5.43;;;15.50;75.80;;;;;;11018714;32;20070;-70
2022/04/07 22:07:51;;;;;;;9.50;7.45;;;15.40;75.60;;;;;;10986399;32;20049;-70
2022/04/07 22:13:53;;;;;;;9.23;7.15;;;15.10;76.00;;;;;;10986561;32;20049;-70
2022/04/07 22:19:59;;;;;;;13.10;9.13;;;14.90;76.20;;;;;;10985906;32;20022;-71
2022/04/07 22:26:01;;;;;;;12.07;8.23;;;14.90;76.00;;;;;;10986026;32;20049;-70
2022/04/07 22:32:04;;;;;;;11.98;8.52;;;14.90;75.90;;;;;;10971997;32;20027;-70
2022/04/07 22:38:06;;;;;;;11.57;8.32;;;14.70;75.80;;;;;;10984215;32;20057;-70
2022/04/07 22:44:08;;;;;;;13.98;8.55;;;14.70;76.20;;;;;;10981038;32;20065;-69
2022/04/07 22:50:15;;;;;;;14.57;8.45;;;14.80;75.70;;;;;;10985249;32;20038;-70
2022/04/07 22:56:18;;;;;;;11.07;9.95;;;14.80;75.60;;;;;;10984969;32;20019;-70
2022/04/07 23:02:25;;;;;;;12.25;9.27;;;15.00;75.60;;;;;;10984602;32;20053;-70
2022/04/07 23:08:28;;;;;;;12.27;7.93;;;14.90;75.50;;;;;;10984502;32;20049;-70
2022/04/07 23:14:30;;;;;;;10.10;7.35;;;14.80;75.40;;;;;;10984575;32;20023;-70
2022/04/07 23:20:32;;;;;;;11.10;8.15;;;14.80;75.30;;;;;;10982122;32;20026;-70
2022/04/07 23:26:34;;;;;;;14.77;9.30;;;14.80;75.20;;;;;;10982085;32;20030;-70
2022/04/07 23:32:36;;;;;;;13.62;8.52;;;14.80;75.20;;;;;;10984126;32;20346;-70
2022/04/07 23:38:39;;;;;;;16.65;13.07;;;14.60;75.30;;;;;;10983765;32;20066;-70
2022/04/07 23:44:41;;;;;;;11.63;8.98;;;14.50;75.80;;;;;;10983445;32;20053;-70
2022/04/07 23:50:43;;;;;;;12.48;10.68;;;14.70;75.40;;;;;;10983288;32;20057;-70
2022/04/07 23:56:53;;;;;;;12.95;9.55;;;14.70;75.20;;;;;;10982942;32;20026;-69
